createdAt,value
2023-03-06T00:00:30.681Z,12.10
2023-03-06T00:02:58.727Z,10.97
2023-03-06T00:05:26.052Z,12.13
2023-03-06T00:07:53.168Z,11.70
2023-03-06T00:10:27.192Z,10.80
2023-03-06T00:12:57.257Z,10.73
2023-03-06T00:15:25.627Z,10.50
2023-03-06T00:17:53.400Z,11.17
2023-03-06T00:20:20.877Z,10.03
2023-03-06T00:22:48.257Z,11.10
2023-03-06T00:25:20.820Z,10.37
2023-03-06T00:27:48.425Z,11.47
2023-03-06T00:30:19.203Z,12.37
2023-03-06T00:32:46.804Z,12.03
2023-03-06T00:35:14.712Z,12.43
2023-03-06T00:37:42.305Z,12.00
2023-03-06T00:40:12.286Z,12.40
2023-03-06T00:42:39.539Z,11.17
2023-03-06T00:45:07.432Z,11.93
2023-03-06T00:47:34.365Z,11.33
2023-03-06T00:50:01.507Z,13.40
2023-03-06T00:52:28.480Z,13.30
2023-03-06T00:54:55.644Z,11.97
2023-03-06T00:57:22.758Z,11.37
2023-03-06T00:59:49.690Z,11.67
2023-03-06T01:02:16.900Z,12.63
2023-03-06T01:04:43.908Z,11.10
2023-03-06T01:07:10.963Z,11.73
2023-03-06T01:09:37.997Z,12.80
2023-03-06T01:12:05.146Z,13.97
2023-03-06T01:14:32.399Z,13.03
2023-03-06T01:16:59.503Z,12.43
2023-03-06T01:19:26.516Z,12.70
2023-03-06T01:21:53.528Z,13.77
2023-03-06T01:24:20.502Z,13.00
2023-03-06T01:26:47.386Z,12.70
2023-03-06T01:29:14.409Z,12.37
2023-03-06T01:31:41.295Z,12.77
2023-03-06T01:34:08.513Z,14.03
2023-03-06T01:36:35.450Z,15.03
2023-03-06T01:39:03.819Z,14.67
2023-03-06T01:41:32.770Z,14.77
2023-03-06T01:44:00.128Z,14.70
2023-03-06T01:46:33.385Z,15.47
2023-03-06T01:49:06.381Z,14.43
2023-03-06T01:51:40.927Z,16.00
2023-03-06T01:54:17.806Z,15.50
2023-03-06T01:56:46.914Z,16.33
2023-03-06T01:59:14.829Z,14.27
2023-03-06T02:01:43.626Z,14.97
2023-03-06T02:04:12.069Z,15.17
2023-03-06T02:06:43.318Z,13.93
2023-03-06T02:09:12.099Z,13.53
2023-03-06T02:11:43.922Z,13.70
2023-03-06T02:14:13.497Z,14.03
2023-03-06T02:16:41.719Z,14.77
2023-03-06T02:19:23.919Z,13.60
2023-03-06T02:21:51.138Z,13.73
2023-03-06T02:24:29.735Z,13.90
2023-03-06T02:26:57.790Z,14.73
2023-03-06T02:29:27.880Z,14.83
2023-03-06T02:31:55.120Z,14.30
2023-03-06T02:34:22.153Z,15.50
2023-03-06T02:36:53.269Z,15.73
2023-03-06T02:39:25.395Z,14.07
2023-03-06T02:41:52.538Z,15.23
2023-03-06T02:44:20.030Z,16.03
2023-03-06T02:46:47.096Z,13.73
2023-03-06T02:49:14.152Z,13.00
2023-03-06T02:51:42.086Z,13.77
2023-03-06T02:54:09.037Z,13.97
2023-03-06T02:56:35.988Z,14.67
2023-03-06T02:59:02.947Z,15.80
2023-03-06T03:01:30.336Z,14.27
2023-03-06T03:03:57.391Z,15.53
2023-03-06T03:06:24.392Z,14.93
2023-03-06T03:08:51.263Z,15.87
2023-03-06T03:11:18.413Z,15.63
2023-03-06T03:13:45.302Z,14.60
2023-03-06T03:16:15.609Z,15.70
2023-03-06T03:18:48.127Z,15.23
2023-03-06T03:21:15.726Z,14.23
2023-03-06T03:23:43.004Z,15.03
2023-03-06T03:26:15.679Z,15.93
2023-03-06T03:28:43.061Z,13.40
2023-03-06T03:31:11.230Z,15.33
2023-03-06T03:33:38.812Z,14.13
2023-03-06T03:36:07.769Z,13.53
2023-03-06T03:38:35.264Z,13.80
2023-03-06T03:41:05.380Z,14.67
2023-03-06T03:43:32.721Z,14.43
2023-03-06T03:45:59.688Z,14.13
2023-03-06T03:48:26.769Z,14.77
2023-03-06T03:50:53.708Z,14.20
2023-03-06T03:53:20.684Z,17.13
2023-03-06T03:55:49.108Z,15.70
2023-03-06T03:58:16.363Z,13.27
2023-03-06T04:00:43.443Z,14.43
2023-03-06T04:03:10.471Z,14.53
2023-03-06T04:05:38.855Z,15.07
2023-03-06T04:08:06.060Z,16.40
2023-03-06T04:10:34.458Z,14.57
2023-03-06T04:13:01.538Z,14.73
2023-03-06T04:15:28.586Z,14.97
2023-03-06T04:17:55.633Z,16.00
2023-03-06T04:20:22.629Z,14.93
2023-03-06T04:22:49.644Z,15.53
2023-03-06T04:25:16.748Z,14.97
2023-03-06T04:27:43.826Z,15.43
2023-03-06T04:30:11.688Z,15.60
2023-03-06T04:32:38.717Z,15.17
2023-03-06T04:35:06.182Z,15.73
2023-03-06T04:37:33.297Z,15.57
2023-03-06T04:40:00.245Z,14.60
2023-03-06T04:42:27.527Z,17.00
2023-03-06T04:44:54.548Z,16.77
2023-03-06T04:47:21.771Z,14.10
2023-03-06T04:49:48.703Z,15.47
2023-03-06T04:52:15.683Z,16.43
2023-03-06T04:54:43.215Z,17.47
2023-03-06T04:57:11.094Z,16.90
2023-03-06T04:59:39.224Z,14.80
2023-03-06T05:02:06.344Z,15.03
2023-03-06T05:04:33.448Z,15.60
2023-03-06T05:07:00.432Z,15.73
2023-03-06T05:09:27.534Z,15.60
2023-03-06T05:11:54.478Z,16.93
2023-03-06T05:14:21.538Z,16.63
2023-03-06T05:16:48.601Z,16.83
2023-03-06T05:19:15.614Z,15.33
2023-03-06T05:21:42.545Z,16.07
2023-03-06T05:24:10.315Z,19.90
2023-03-06T05:26:37.247Z,27.73
2023-03-06T05:29:04.222Z,18.90
2023-03-06T05:31:31.303Z,17.50
2023-03-06T05:33:58.825Z,18.00
2023-03-06T05:36:25.837Z,16.70
2023-03-06T05:38:53.023Z,15.70
2023-03-06T05:41:20.030Z,15.00
2023-03-06T05:43:47.076Z,14.40
2023-03-06T05:46:14.034Z,16.37
2023-03-06T05:48:41.099Z,16.27
2023-03-06T05:51:08.081Z,15.10
2023-03-06T05:53:35.059Z,17.10
2023-03-06T05:56:05.000Z,17.57
2023-03-06T05:58:33.234Z,15.33
2023-03-06T06:01:00.514Z,15.37
2023-03-06T06:03:27.661Z,16.90
2023-03-06T06:05:54.674Z,17.20
2023-03-06T06:08:22.037Z,16.03
2023-03-06T06:10:51.006Z,16.40
2023-03-06T06:13:19.801Z,17.07
2023-03-06T06:15:46.802Z,16.17
2023-03-06T06:18:13.868Z,16.47
2023-03-06T06:20:40.932Z,15.87
2023-03-06T06:23:10.255Z,16.27
2023-03-06T06:25:37.953Z,15.70
2023-03-06T06:28:05.779Z,15.83
2023-03-06T06:30:34.202Z,15.83
2023-03-06T06:33:01.101Z,15.53
2023-03-06T06:35:28.091Z,15.63
2023-03-06T06:37:55.356Z,15.53
2023-03-06T06:40:24.467Z,15.90
2023-03-06T06:42:53.156Z,15.40
2023-03-06T06:45:20.174Z,15.70
2023-03-06T06:47:50.206Z,16.20
2023-03-06T06:50:17.359Z,15.13
2023-03-06T06:52:44.302Z,15.33
2023-03-06T06:55:12.472Z,20.07
2023-03-06T06:57:40.570Z,15.17
2023-03-06T07:00:08.498Z,14.47
2023-03-06T07:02:35.408Z,15.73
2023-03-06T07:05:05.244Z,16.27
2023-03-06T07:07:36.976Z,14.93
2023-03-06T07:10:06.408Z,14.17
2023-03-06T07:12:35.227Z,14.60
2023-03-06T07:15:02.820Z,14.37
2023-03-06T07:17:30.000Z,14.03
2023-03-06T07:19:56.931Z,14.90
2023-03-06T07:22:24.289Z,14.33
2023-03-06T07:24:51.277Z,14.37
2023-03-06T07:27:18.295Z,14.47
2023-03-06T07:29:45.395Z,13.37
2023-03-06T07:32:12.481Z,14.17
2023-03-06T07:34:39.679Z,13.57
2023-03-06T07:37:06.697Z,12.33
2023-03-06T07:39:34.106Z,13.23
2023-03-06T07:42:01.253Z,12.60
2023-03-06T07:44:28.458Z,13.43
2023-03-06T07:46:55.537Z,12.43
2023-03-06T07:49:22.471Z,14.30
2023-03-06T07:51:49.424Z,12.27
2023-03-06T07:54:16.349Z,12.40
2023-03-06T07:56:43.468Z,13.10
2023-03-06T07:59:11.812Z,12.17
2023-03-06T08:01:40.372Z,12.53
2023-03-06T08:04:07.695Z,11.03
2023-03-06T08:06:34.780Z,12.53
2023-03-06T08:09:01.902Z,11.87
2023-03-06T08:11:30.732Z,12.23
2023-03-06T08:13:58.607Z,11.90
2023-03-06T08:16:28.233Z,11.90
2023-03-06T08:18:56.680Z,10.93
2023-03-06T08:21:26.652Z,10.60
2023-03-06T08:23:54.102Z,11.90
2023-03-06T08:26:23.464Z,11.10
2023-03-06T08:28:51.983Z,11.10
2023-03-06T08:31:24.998Z,10.70
2023-03-06T08:33:52.736Z,10.87
2023-03-06T08:36:19.947Z,10.00
2023-03-06T08:38:46.985Z,9.60
2023-03-06T08:41:14.040Z,9.37
2023-03-06T08:43:41.189Z,10.17
2023-03-06T08:46:08.208Z,10.30
2023-03-06T08:48:35.272Z,9.67
2023-03-06T08:51:02.273Z,9.87
2023-03-06T08:53:42.264Z,9.20
2023-03-06T08:56:31.440Z,9.13
2023-03-06T08:59:00.505Z,10.80
2023-03-06T09:01:30.819Z,9.63
2023-03-06T09:04:00.296Z,9.97
2023-03-06T09:06:30.309Z,9.10
2023-03-06T09:08:57.378Z,9.10
2023-03-06T09:11:26.660Z,9.83
2023-03-06T09:13:54.615Z,8.90
2023-03-06T09:16:22.109Z,9.33
2023-03-06T09:18:54.057Z,10.50
2023-03-06T09:21:22.398Z,8.70
2023-03-06T09:23:49.867Z,10.73
2023-03-06T09:26:16.981Z,8.87
2023-03-06T09:28:44.357Z,10.10
2023-03-06T09:31:13.707Z,9.87
2023-03-06T09:33:40.950Z,9.10
2023-03-06T09:36:10.572Z,9.10
2023-03-06T09:38:37.539Z,9.70
2023-03-06T09:41:19.211Z,9.70
2023-03-06T09:43:49.242Z,9.97
2023-03-06T09:46:25.680Z,9.93
2023-03-06T09:49:29.304Z,8.43
2023-03-06T09:52:36.447Z,8.60
2023-03-06T09:55:09.143Z,9.00
2023-03-06T09:57:41.251Z,8.70
2023-03-06T10:00:16.992Z,9.33
2023-03-06T10:02:59.128Z,8.30
2023-03-06T10:05:33.326Z,9.43
2023-03-06T10:08:12.389Z,9.70
2023-03-06T10:11:07.700Z,9.03
2023-03-06T10:13:44.969Z,9.67
2023-03-06T10:16:27.485Z,11.37
2023-03-06T10:18:59.773Z,9.77
2023-03-06T10:21:46.962Z,9.47
2023-03-06T10:24:45.313Z,9.00
2023-03-06T10:27:46.236Z,9.23
2023-03-06T10:30:44.885Z,9.47
2023-03-06T10:33:30.445Z,9.43
2023-03-06T10:35:58.187Z,8.17
2023-03-06T10:38:37.831Z,9.80
2023-03-06T10:41:10.942Z,10.60
2023-03-06T10:43:40.302Z,10.87
2023-03-06T10:46:10.239Z,11.97
2023-03-06T10:48:41.693Z,10.33
2023-03-06T10:51:21.908Z,10.17
2023-03-06T10:54:04.177Z,9.13
2023-03-06T10:56:39.826Z,9.13
2023-03-06T10:59:08.310Z,9.23
2023-03-06T11:01:35.899Z,10.07
2023-03-06T11:04:21.307Z,9.93
2023-03-06T11:06:48.535Z,9.63
2023-03-06T11:09:25.339Z,9.57
2023-03-06T11:11:52.874Z,10.07
2023-03-06T11:14:23.204Z,10.47
2023-03-06T11:16:53.760Z,9.17
2023-03-06T11:19:29.150Z,9.03
2023-03-06T11:22:05.166Z,10.13
2023-03-06T11:24:43.519Z,9.63
2023-03-06T11:27:30.604Z,10.57
2023-03-06T11:30:00.162Z,9.90
2023-03-06T11:33:00.934Z,9.57
2023-03-06T11:35:47.665Z,10.27
2023-03-06T11:38:16.921Z,9.87
2023-03-06T11:40:51.481Z,10.27
2023-03-06T11:44:02.710Z,10.50
2023-03-06T11:46:38.240Z,10.50
2023-03-06T11:49:30.582Z,10.03
2023-03-06T11:52:35.652Z,11.20
2023-03-06T11:55:02.888Z,10.93
2023-03-06T11:57:52.598Z,10.30
2023-03-06T12:00:42.836Z,11.77
2023-03-06T12:03:12.834Z,10.40
2023-03-06T12:05:51.411Z,10.13
2023-03-06T12:08:46.398Z,10.10
2023-03-06T12:11:24.527Z,10.20
2023-03-06T12:14:30.866Z,9.80
2023-03-06T12:17:16.043Z,9.63
2023-03-06T12:20:05.331Z,13.27
2023-03-06T12:23:02.346Z,11.60
2023-03-06T12:25:42.555Z,9.37
2023-03-06T12:28:12.625Z,8.97
2023-03-06T12:31:18.909Z,9.43
2023-03-06T12:34:07.027Z,9.63
2023-03-06T12:36:47.756Z,10.17
2023-03-06T12:39:14.628Z,8.90
2023-03-06T12:42:02.506Z,9.93
2023-03-06T12:45:01.284Z,9.57
2023-03-06T12:47:29.265Z,11.33
2023-03-06T12:50:03.728Z,9.53
2023-03-06T12:52:33.041Z,10.67
2023-03-06T12:55:05.029Z,9.63
2023-03-06T12:57:31.964Z,9.43
2023-03-06T13:00:00.059Z,9.33
2023-03-06T13:02:26.969Z,10.00
2023-03-06T13:05:19.412Z,10.70
2023-03-06T13:08:01.183Z,13.47
2023-03-06T13:10:39.975Z,9.60
2023-03-06T13:13:36.135Z,9.63
2023-03-06T13:16:23.116Z,12.30
2023-03-06T13:19:13.543Z,10.80
2023-03-06T13:21:47.065Z,9.60
2023-03-06T13:24:30.147Z,13.73
2023-03-06T13:27:12.075Z,11.33
2023-03-06T13:29:38.970Z,10.17
2023-03-06T13:32:14.054Z,10.70
2023-03-06T13:34:43.122Z,11.10
2023-03-06T13:37:25.030Z,11.83
2023-03-06T13:40:00.645Z,10.07
2023-03-06T13:42:32.807Z,10.53
2023-03-06T13:45:15.693Z,10.03
2023-03-06T13:50:42.292Z,9.10
2023-03-06T13:53:32.107Z,9.17
2023-03-06T13:56:23.982Z,9.97
2023-03-06T13:59:22.847Z,10.73
2023-03-06T14:02:00.119Z,10.33
2023-03-06T14:04:56.468Z,9.47
2023-03-06T14:07:27.861Z,10.03
2023-03-06T14:10:04.774Z,10.50
2023-03-06T14:12:36.157Z,9.67
2023-03-06T14:15:28.557Z,9.60
2023-03-06T14:18:02.677Z,9.43
2023-03-06T14:20:54.691Z,10.37
2023-03-06T14:23:21.630Z,9.77
2023-03-06T14:25:55.159Z,10.37
2023-03-06T14:28:30.980Z,10.30
2023-03-06T14:31:00.180Z,11.23
2023-03-06T14:33:55.092Z,12.33
2023-03-06T14:36:34.905Z,11.50
2023-03-06T14:39:07.924Z,9.90
2023-03-06T14:41:36.963Z,10.00
2023-03-06T14:44:21.620Z,13.53
2023-03-06T14:47:28.682Z,10.73
2023-03-06T14:50:25.562Z,9.10
2023-03-06T14:53:01.493Z,10.50
2023-03-06T14:55:32.444Z,10.37
2023-03-06T14:58:15.259Z,10.67
2023-03-06T15:00:45.442Z,10.37
2023-03-06T15:03:25.292Z,13.10
2023-03-06T15:05:53.329Z,9.63
2023-03-06T15:08:30.018Z,9.53
2023-03-06T15:11:02.182Z,12.00
2023-03-06T15:13:32.551Z,10.23
2023-03-06T15:16:01.830Z,11.07
2023-03-06T15:18:30.705Z,10.70
2023-03-06T15:21:35.178Z,20.80
2023-03-06T15:24:02.879Z,12.00
2023-03-06T15:26:31.844Z,11.37
2023-03-06T15:29:10.906Z,10.57
2023-03-06T15:31:43.592Z,11.47
2023-03-06T15:34:10.718Z,11.90
2023-03-06T15:36:44.500Z,23.47
2023-03-06T15:39:38.136Z,38.20
2023-03-06T15:42:28.214Z,13.23
2023-03-06T15:45:03.445Z,11.17
2023-03-06T15:47:30.798Z,12.73
2023-03-06T15:49:58.746Z,16.13
2023-03-06T15:52:26.061Z,28.23
2023-03-06T15:54:53.561Z,14.13
2023-03-06T15:57:22.943Z,13.87
2023-03-06T15:59:50.579Z,16.93
2023-03-06T16:02:22.446Z,14.23
2023-03-06T16:04:50.525Z,18.23
2023-03-06T16:07:17.838Z,13.57
2023-03-06T16:09:45.382Z,15.10
2023-03-06T16:12:21.273Z,12.67
2023-03-06T16:14:49.089Z,12.47
2023-03-06T16:17:17.186Z,13.07
2023-03-06T16:19:44.670Z,12.23
2023-03-06T16:22:11.836Z,11.47
2023-03-06T16:24:39.558Z,11.67
2023-03-06T16:27:07.100Z,12.17
2023-03-06T16:29:35.619Z,12.83
2023-03-06T16:32:02.905Z,11.77
2023-03-06T16:34:30.107Z,12.47
2023-03-06T16:36:58.024Z,11.73
2023-03-06T16:39:25.865Z,11.00
2023-03-06T16:41:53.185Z,13.17
2023-03-06T16:44:21.097Z,14.07
2023-03-06T16:46:50.248Z,12.37
2023-03-06T16:49:22.900Z,12.33
2023-03-06T16:51:50.992Z,11.97
2023-03-06T16:54:18.054Z,11.60
2023-03-06T16:56:45.636Z,12.77
2023-03-06T16:59:12.844Z,12.43
2023-03-06T17:01:43.415Z,11.87
2023-03-06T17:04:11.344Z,11.53
2023-03-06T17:06:38.710Z,12.13
2023-03-06T17:09:06.054Z,12.07
2023-03-06T17:11:33.290Z,12.20
2023-03-06T17:14:02.015Z,12.73
2023-03-06T17:16:29.648Z,11.43
2023-03-06T17:18:58.592Z,11.83
2023-03-06T17:21:27.333Z,13.33
2023-03-06T17:23:54.375Z,12.50
2023-03-06T17:26:21.579Z,16.50
2023-03-06T17:28:48.905Z,13.23
2023-03-06T17:31:18.405Z,13.17
2023-03-06T17:33:46.173Z,12.27
2023-03-06T17:36:14.948Z,11.93
2023-03-06T17:38:43.114Z,12.17
2023-03-06T17:41:11.430Z,12.70
2023-03-06T17:43:39.627Z,12.83
2023-03-06T17:46:11.396Z,11.73
2023-03-06T17:48:38.869Z,12.00
2023-03-06T17:51:06.837Z,12.27
2023-03-06T17:53:33.938Z,11.13
2023-03-06T17:56:07.310Z,11.03
2023-03-06T17:58:35.082Z,12.97
2023-03-06T18:01:10.262Z,12.10
2023-03-06T18:03:38.731Z,13.50
2023-03-06T18:06:09.548Z,13.03
2023-03-06T18:08:37.615Z,12.77
2023-03-06T18:11:07.048Z,11.73
2023-03-06T18:13:36.015Z,11.50
2023-03-06T18:16:03.940Z,12.13
2023-03-06T18:18:31.640Z,12.90
2023-03-06T18:21:02.709Z,10.70
2023-03-06T18:23:29.677Z,11.87
2023-03-06T18:26:12.113Z,11.10
2023-03-06T18:28:42.527Z,11.20
2023-03-06T18:31:31.797Z,11.00
2023-03-06T18:34:05.731Z,11.03
2023-03-06T18:36:33.815Z,11.07
2023-03-06T18:39:03.913Z,11.40
2023-03-06T18:41:32.103Z,11.97
2023-03-06T18:44:01.263Z,10.97
2023-03-06T18:46:34.854Z,10.87
2023-03-06T18:49:02.771Z,10.50
2023-03-06T18:51:30.798Z,11.97
2023-03-06T18:53:59.840Z,11.00
2023-03-06T18:56:27.206Z,10.93
2023-03-06T18:58:54.318Z,11.00
2023-03-06T19:01:22.723Z,11.97
2023-03-06T19:03:50.418Z,12.10
2023-03-06T19:06:18.164Z,12.63
2023-03-06T19:08:45.359Z,11.47
2023-03-06T19:11:15.543Z,11.47
2023-03-06T19:13:43.018Z,10.63
2023-03-06T19:16:17.660Z,11.10
2023-03-06T19:18:44.676Z,11.90
2023-03-06T19:21:14.576Z,12.40
2023-03-06T19:23:42.168Z,11.50
2023-03-06T19:26:10.162Z,11.63
2023-03-06T19:28:39.968Z,11.87
2023-03-06T19:31:11.571Z,12.53
2023-03-06T19:33:39.332Z,13.07
2023-03-06T19:36:08.421Z,11.83
2023-03-06T19:38:36.123Z,11.43
2023-03-06T19:41:03.451Z,12.23
2023-03-06T19:43:34.112Z,11.77
2023-03-06T19:46:01.288Z,12.80
2023-03-06T19:48:28.261Z,12.07
2023-03-06T19:50:55.391Z,12.27
2023-03-06T19:53:23.226Z,11.27
2023-03-06T19:55:50.369Z,11.70
2023-03-06T19:58:17.422Z,12.97
2023-03-06T20:00:44.860Z,12.53
2023-03-06T20:03:11.884Z,12.90
2023-03-06T20:05:46.426Z,12.57
2023-03-06T20:08:13.539Z,11.67
2023-03-06T20:10:40.537Z,12.50
2023-03-06T20:13:07.668Z,13.13
2023-03-06T20:15:35.258Z,11.83
2023-03-06T20:18:02.607Z,12.77
2023-03-06T20:20:29.608Z,12.40
2023-03-06T20:22:56.759Z,12.20
2023-03-06T20:25:23.897Z,12.73
2023-03-06T20:27:50.919Z,11.93
2023-03-06T20:30:18.498Z,12.53
2023-03-06T20:32:45.843Z,13.73
2023-03-06T20:35:12.871Z,13.67
2023-03-06T20:37:41.383Z,13.17
2023-03-06T20:40:09.063Z,12.60
2023-03-06T20:42:36.248Z,13.33
2023-03-06T20:45:03.497Z,12.73
2023-03-06T20:47:30.532Z,13.67
2023-03-06T20:49:57.940Z,12.87
2023-03-06T20:52:25.078Z,13.10
2023-03-06T20:54:52.101Z,12.20
2023-03-06T20:57:19.198Z,12.70
2023-03-06T20:59:46.316Z,13.07
2023-03-06T21:02:15.236Z,12.67
2023-03-06T21:04:42.494Z,13.13
2023-03-06T21:07:09.491Z,13.73
2023-03-06T21:09:38.273Z,12.70
2023-03-06T21:12:05.799Z,12.37
2023-03-06T21:14:32.902Z,12.67
2023-03-06T21:17:01.441Z,13.30
2023-03-06T21:19:28.593Z,12.47
2023-03-06T21:21:55.667Z,12.70
2023-03-06T21:24:22.951Z,12.00
2023-03-06T21:26:51.351Z,12.73
2023-03-06T21:29:18.424Z,13.03
2023-03-06T21:31:45.409Z,11.63
2023-03-06T21:34:12.786Z,11.73
2023-03-06T21:36:39.744Z,13.57
2023-03-06T21:39:07.011Z,13.40
2023-03-06T21:41:34.616Z,12.67
2023-03-06T21:44:04.117Z,12.43
2023-03-06T21:46:31.970Z,12.23
2023-03-06T21:48:59.473Z,12.33
2023-03-06T21:51:27.295Z,12.53
2023-03-06T21:53:55.103Z,12.07
2023-03-06T21:56:25.118Z,12.13
2023-03-06T21:58:52.814Z,13.63
2023-03-06T22:01:24.647Z,12.50
2023-03-06T22:03:52.226Z,12.80
2023-03-06T22:06:22.459Z,12.27
2023-03-06T22:08:49.721Z,12.33
2023-03-06T22:11:19.294Z,12.10
2023-03-06T22:13:48.280Z,12.47
2023-03-06T22:16:16.622Z,11.93
2023-03-06T22:18:48.902Z,11.53
2023-03-06T22:21:18.433Z,12.40
2023-03-06T22:23:50.584Z,12.63
2023-03-06T22:26:17.706Z,12.73
2023-03-06T22:28:45.125Z,12.07
2023-03-06T22:31:20.805Z,13.17
2023-03-06T22:33:51.452Z,12.40
2023-03-06T22:36:19.634Z,11.90
2023-03-06T22:38:47.519Z,12.47
2023-03-06T22:41:17.266Z,13.00
2023-03-06T22:43:44.379Z,11.70
2023-03-06T22:46:16.328Z,11.67
2023-03-06T22:48:43.897Z,12.20
2023-03-06T22:51:15.903Z,11.43
2023-03-06T22:53:43.420Z,11.57
2023-03-06T22:56:13.683Z,11.70
2023-03-06T22:58:41.363Z,11.33
2023-03-06T23:01:17.946Z,11.87
2023-03-06T23:03:47.968Z,12.13
2023-03-06T23:06:17.854Z,10.73
2023-03-06T23:08:48.869Z,11.90
2023-03-06T23:11:17.790Z,11.93
2023-03-06T23:13:45.405Z,11.57
2023-03-06T23:16:12.813Z,12.17
2023-03-06T23:18:41.159Z,11.17
2023-03-06T23:21:09.958Z,12.13
2023-03-06T23:23:38.265Z,12.00
2023-03-06T23:26:06.868Z,10.47
2023-03-06T23:28:35.000Z,11.00
2023-03-06T23:31:07.958Z,11.37
2023-03-06T23:33:35.655Z,11.00
2023-03-06T23:36:04.476Z,11.17
2023-03-06T23:38:32.019Z,11.27
2023-03-06T23:41:04.472Z,11.27
2023-03-06T23:43:32.113Z,11.63
2023-03-06T23:45:59.884Z,9.77
2023-03-06T23:48:27.979Z,10.73
2023-03-06T23:50:55.136Z,10.87
2023-03-06T23:53:23.163Z,10.47
2023-03-06T23:55:51.285Z,11.33
2023-03-06T23:58:19.642Z,10.03
